Time;durP1;ratioP1;P1;durP2;ratioP2;P2;SDS_P1;SDS_P2;PMS_P1;PMS_P2;Temp;Humidity;BMP_temperature;BMP_pressure;BME280_temperature;BME280_humidity;BME280_pressure;Samples;Min_cycle;Max_cycle;Signal;HPM_P1;HPM_P2
2024/04/09 00:00:32;;;;;;;;;2.00;1.00;;;;;14.52;61.36;100215.75;5507094;25;43714;-58
2024/04/09 00:02:57;;;;;;;;;0.00;0.00;;;;;14.49;61.24;100215.94;5538499;25;46453;-57
2024/04/09 00:05:26;;;;;;;;;1.00;0.00;;;;;14.42;60.41;100218.03;5537980;25;44197;-55
2024/04/09 00:07:51;;;;;;;;;0.00;0.00;;;;;14.33;60.85;100211.44;5541769;25;43901;-56
2024/04/09 00:10:19;;;;;;;;;3.00;0.00;;;;;14.27;60.43;100216.16;5540725;25;44276;-57
2024/04/09 00:12:44;;;;;;;;;0.25;0.00;;;;;14.20;59.88;100200.69;5539681;25;43895;-56
2024/04/09 00:15:12;;;;;;;;;0.00;0.00;;;;;14.14;59.65;100205.41;5539608;25;64061;-56
2024/04/09 00:17:54;;;;;;;;;1.00;1.00;;;;;14.11;59.69;100208.19;5517054;25;43752;-56
2024/04/09 00:20:24;;;;;;;;;1.00;0.00;;;;;14.11;59.70;100216.09;5540459;25;43742;-56
2024/04/09 00:22:54;;;;;;;;;2.00;0.50;;;;;14.06;58.92;100218.97;5539057;25;44114;-57
2024/04/09 00:25:20;;;;;;;;;2.00;0.00;;;;;14.00;58.89;100227.13;5537167;25;43908;-57
2024/04/09 00:27:45;;;;;;;;;1.50;0.00;;;;;13.93;58.96;100223.09;5540670;25;43965;-56
2024/04/09 00:30:11;;;;;;;;;1.00;0.00;;;;;13.84;58.69;100220.00;5538027;25;43799;-58
2024/04/09 00:32:36;;;;;;;;;1.50;0.00;;;;;13.78;58.06;100232.63;5541045;25;44734;-58
2024/04/09 00:35:03;;;;;;;;;1.00;0.00;;;;;13.68;57.83;100235.66;5537546;25;71623;-58
2024/04/09 00:37:29;;;;;;;;;0.25;0.00;;;;;13.64;57.65;100220.97;5539673;25;44347;-57
2024/04/09 00:39:54;;;;;;;;;3.00;0.00;;;;;13.60;57.77;100222.06;5540958;25;43955;-58
2024/04/09 00:42:20;;;;;;;;;0.00;0.00;;;;;13.50;58.00;100217.31;5498552;25;54247;-58
2024/04/09 00:44:48;;;;;;;;;1.25;0.00;;;;;13.43;58.15;100225.47;5538358;25;44017;-57
2024/04/09 00:47:16;;;;;;;;;0.00;0.00;;;;;13.39;58.72;100229.16;5540206;25;43705;-57
2024/04/09 00:49:43;;;;;;;;;0.00;0.00;;;;;13.35;58.43;100243.38;5539795;25;44836;-58
2024/04/09 00:52:08;;;;;;;;;1.00;0.00;;;;;13.31;59.44;100226.03;5506650;25;46470;-58
2024/04/09 00:54:35;;;;;;;;;0.50;0.00;;;;;13.28;58.59;100236.69;5538419;25;60054;-58
2024/04/09 00:57:04;;;;;;;;;2.00;0.00;;;;;13.24;59.53;100237.72;5504157;25;67380;-58
2024/04/09 00:59:31;;;;;;;;;0.00;0.00;;;;;13.22;59.68;100240.41;5538354;25;43744;-58
2024/04/09 01:01:58;;;;;;;;;2.00;0.00;;;;;13.21;59.37;100244.00;5508232;25;45614;-59
2024/04/09 01:04:23;;;;;;;;;0.00;0.00;;;;;13.19;59.14;100243.22;5536068;25;44078;-59
2024/04/09 01:06:49;;;;;;;;;3.50;0.75;;;;;13.19;59.49;100234.44;5539498;25;43765;-59
2024/04/09 01:09:14;;;;;;;;;3.00;0.00;;;;;13.22;59.72;100264.06;5538893;25;44036;-58
2024/04/09 01:11:39;;;;;;;;;0.00;0.00;;;;;13.20;59.98;100242.28;5513626;25;45610;-58
2024/04/09 01:14:05;;;;;;;;;2.00;0.00;;;;;13.17;59.30;100254.69;5537533;25;43862;-59
2024/04/09 01:16:30;;;;;;;;;2.50;0.00;;;;;13.10;59.12;100260.25;5539783;25;44088;-59
2024/04/09 01:18:55;;;;;;;;;0.50;0.00;;;;;13.08;59.33;100271.72;5540040;25;43947;-59
2024/04/09 01:21:21;;;;;;;;;3.25;0.50;;;;;13.04;59.01;100278.03;5492632;25;45687;-58
2024/04/09 01:23:48;;;;;;;;;1.00;0.00;;;;;13.03;59.37;100271.06;5494795;25;68248;-58
2024/04/09 01:26:14;;;;;;;;;2.25;0.00;;;;;12.99;58.82;100283.50;5540366;25;43762;-58
2024/04/09 01:28:39;;;;;;;;;0.50;0.25;;;;;12.97;59.20;100280.09;5532837;25;43838;-59
2024/04/09 01:31:05;;;;;;;;;0.00;0.00;;;;;12.94;58.67;100292.50;5537401;25;44101;-58
2024/04/09 01:33:30;;;;;;;;;3.50;1.00;;;;;12.91;59.42;100285.63;5538248;25;43619;-59
2024/04/09 01:35:56;;;;;;;;;1.00;0.00;;;;;12.87;59.43;100295.41;5538859;25;44216;-58
2024/04/09 01:38:22;;;;;;;;;0.50;0.00;;;;;12.85;59.52;100297.22;5507797;25;43670;-59
2024/04/09 01:40:47;;;;;;;;;0.25;0.00;;;;;12.82;59.30;100296.50;5540065;25;44673;-59
2024/04/09 01:43:13;;;;;;;;;0.00;0.00;;;;;12.82;59.88;100302.63;5540091;25;43910;-59
2024/04/09 01:45:38;;;;;;;;;1.00;0.00;;;;;12.78;59.78;100292.31;5491586;25;62247;-57
2024/04/09 01:48:04;;;;;;;;;3.50;0.00;;;;;12.74;59.66;100291.59;5538026;25;72507;-58
2024/04/09 01:50:31;;;;;;;;;2.00;0.00;;;;;12.71;59.80;100299.59;5539042;25;44664;-57
2024/04/09 01:52:56;;;;;;;;;1.00;0.00;;;;;12.67;58.92;100290.16;5538105;25;44014;-56
2024/04/09 01:55:22;;;;;;;;;0.25;0.00;;;;;12.60;59.16;100315.81;5536908;25;45880;-57
2024/04/09 01:57:48;;;;;;;;;2.00;0.00;;;;;12.53;59.02;100307.34;5537905;25;43693;-56
2024/04/09 02:00:19;;;;;;;;;1.00;0.00;;;;;12.48;58.92;100326.81;5495618;25;43997;-57
2024/04/09 02:02:47;;;;;;;;;2.00;0.00;;;;;12.45;58.47;100311.22;5501775;25;43931;-58
2024/04/09 02:05:13;;;;;;;;;2.00;0.00;;;;;12.41;58.26;100309.63;5521039;25;44108;-58
2024/04/09 02:07:39;;;;;;;;;0.00;0.00;;;;;12.35;57.95;100310.72;5537610;25;43735;-57
2024/04/09 02:10:05;;;;;;;;;1.75;0.00;;;;;12.36;57.93;100309.84;5538736;25;45694;-60
2024/04/09 02:12:30;;;;;;;;;0.00;0.00;;;;;12.35;58.03;100318.59;5507706;25;43879;-57
2024/04/09 02:14:55;;;;;;;;;1.00;0.50;;;;;12.34;57.93;100325.63;5537206;25;68341;-56
2024/04/09 02:17:20;;;;;;;;;2.00;1.00;;;;;12.32;58.12;100331.84;5539372;25;72060;-58
2024/04/09 02:19:46;;;;;;;;;0.00;0.00;;;;;12.29;57.54;100348.56;5535342;25;75202;-58
2024/04/09 02:22:12;;;;;;;;;3.50;0.00;;;;;12.29;57.84;100345.09;5538542;25;73030;-58
2024/04/09 02:24:37;;;;;;;;;3.75;0.00;;;;;12.28;57.24;100365.22;5538143;25;43728;-59
2024/04/09 02:27:03;;;;;;;;;2.50;0.00;;;;;12.26;57.55;100358.34;5538936;25;69762;-58
2024/04/09 02:29:29;;;;;;;;;0.50;0.00;;;;;12.25;57.40;100368.00;5538917;25;44958;-58
2024/04/09 02:31:55;;;;;;;;;1.00;0.00;;;;;12.23;57.51;100369.78;5471742;25;43784;-58
2024/04/09 02:34:24;;;;;;;;;0.25;0.00;;;;;12.19;57.28;100381.34;5536389;25;44027;-58
2024/04/09 02:36:49;;;;;;;;;0.25;0.00;;;;;12.13;57.60;100371.94;5539631;25;44022;-57
2024/04/09 02:39:15;;;;;;;;;0.50;0.00;;;;;12.08;57.73;100357.31;5538012;25;44683;-58
2024/04/09 02:41:40;;;;;;;;;2.75;0.00;;;;;12.06;57.72;100367.00;5538859;25;43870;-57
2024/04/09 02:44:07;;;;;;;;;0.00;0.00;;;;;12.01;58.08;100382.91;5521187;25;43991;-57
2024/04/09 02:46:32;;;;;;;;;2.00;0.00;;;;;11.96;57.80;100382.22;5539260;25;43855;-56
2024/04/09 02:48:57;;;;;;;;;2.00;1.00;;;;;11.94;58.35;100400.63;5536812;25;72265;-57
2024/04/09 02:51:23;;;;;;;;;1.50;1.00;;;;;11.92;57.80;100399.84;5503149;25;46179;-58
2024/04/09 02:53:48;;;;;;;;;0.25;0.00;;;;;11.92;58.19;100406.88;5537388;25;68170;-58
2024/04/09 02:56:13;;;;;;;;;0.00;0.00;;;;;11.88;58.32;100413.97;5537879;25;71764;-58
2024/04/09 02:58:39;;;;;;;;;3.00;0.50;;;;;11.89;58.36;100430.53;5536859;25;43943;-58
2024/04/09 03:01:06;;;;;;;;;0.00;0.00;;;;;11.87;58.81;100441.09;5503261;25;43969;-57
2024/04/09 03:03:32;;;;;;;;;2.00;0.00;;;;;11.87;58.53;100456.81;5531808;25;44019;-58
2024/04/09 03:06:07;;;;;;;;;1.50;1.00;;;;;11.89;58.24;100456.78;5505198;25;44790;-58
2024/04/09 03:08:34;;;;;;;;;1.00;0.00;;;;;11.89;58.35;100459.38;5510835;25;44949;-59
2024/04/09 03:10:59;;;;;;;;;0.00;0.00;;;;;11.93;58.39;100446.16;5538157;25;43879;-56
2024/04/09 03:13:24;;;;;;;;;1.00;0.00;;;;;11.96;58.34;100456.50;5505120;25;69206;-58
2024/04/09 03:15:49;;;;;;;;;0.50;0.00;;;;;11.99;58.49;100452.94;5538482;25;44126;-58
2024/04/09 03:18:15;;;;;;;;;4.00;0.00;;;;;12.02;58.08;100455.41;5534395;25;75079;-58
2024/04/09 03:20:41;;;;;;;;;2.50;1.00;;;;;12.03;58.32;100459.75;5538324;25;43899;-57
2024/04/09 03:23:06;;;;;;;;;0.00;0.00;;;;;12.02;58.44;100455.41;5538414;25;43608;-58
2024/04/09 03:25:31;;;;;;;;;0.00;0.00;;;;;12.05;58.15;100467.56;5537678;25;44025;-57
2024/04/09 03:27:57;;;;;;;;;2.50;0.00;;;;;12.05;57.95;100480.69;5536212;25;75128;-59
2024/04/09 03:30:22;;;;;;;;;3.00;0.00;;;;;12.02;57.69;100489.50;5504786;25;48158;-56
2024/04/09 03:32:51;;;;;;;;;0.00;0.00;;;;;11.98;57.87;100484.44;5536844;25;60402;-57
2024/04/09 03:35:16;;;;;;;;;2.50;0.00;;;;;11.97;57.43;100499.34;5536427;25;45832;-57
2024/04/09 03:37:41;;;;;;;;;1.50;0.00;;;;;11.96;57.79;100521.22;5537172;25;74181;-58
2024/04/09 03:40:07;;;;;;;;;2.00;0.00;;;;;11.98;57.66;100521.16;5501215;25;59461;-58
2024/04/09 03:42:32;;;;;;;;;0.25;0.00;;;;;11.93;57.55;100513.47;5537472;25;43812;-58
2024/04/09 03:44:58;;;;;;;;;3.25;0.00;;;;;11.96;57.33;100522.06;5504842;25;62325;-58
2024/04/09 03:47:23;;;;;;;;;3.75;0.75;;;;;11.95;57.33;100524.75;5536530;25;65757;-58
2024/04/09 03:49:48;;;;;;;;;0.00;0.00;;;;;11.93;57.36;100523.94;5537048;25;43987;-57
2024/04/09 03:52:14;;;;;;;;;1.50;0.00;;;;;11.87;57.39;100529.41;5504251;25;43883;-58
2024/04/09 03:54:39;;;;;;;;;1.75;0.00;;;;;11.83;57.53;100515.53;5533444;25;47599;-58
2024/04/09 03:57:05;;;;;;;;;2.00;0.00;;;;;11.81;57.59;100524.34;5532144;25;73251;-59
2024/04/09 03:59:33;;;;;;;;;3.75;1.00;;;;;11.79;57.67;100524.41;5505952;25;43825;-57
2024/04/09 04:01:59;;;;;;;;;1.25;0.00;;;;;11.78;57.36;100520.94;5535782;25;43918;-58
2024/04/09 04:04:24;;;;;;;;;1.75;0.00;;;;;11.73;57.49;100517.63;5535796;25;63884;-57
2024/04/09 04:06:49;;;;;;;;;1.00;0.00;;;;;11.69;57.40;100526.50;5534952;25;74145;-58
2024/04/09 04:09:15;;;;;;;;;1.75;0.00;;;;;11.65;57.35;100540.63;5537359;25;43945;-58
2024/04/09 04:11:41;;;;;;;;;1.50;0.00;;;;;11.66;57.73;100544.94;5537788;25;43919;-58
2024/04/09 04:14:06;;;;;;;;;1.25;0.00;;;;;11.68;57.54;100539.66;5505752;25;44226;-59
2024/04/09 04:16:32;;;;;;;;;1.00;0.00;;;;;11.70;57.87;100533.44;5527141;25;43839;-57
2024/04/09 04:18:57;;;;;;;;;0.00;0.00;;;;;11.74;57.82;100536.84;5534782;25;59862;-56
2024/04/09 04:21:23;;;;;;;;;2.25;0.00;;;;;11.73;57.74;100528.09;5535321;25;65754;-57
2024/04/09 04:23:54;;;;;;;;;1.00;0.00;;;;;11.75;57.96;100522.81;5537136;25;44366;-58
2024/04/09 04:26:21;;;;;;;;;3.75;0.50;;;;;11.76;57.54;100533.25;5504301;25;44950;-56
2024/04/09 04:28:48;;;;;;;;;1.00;0.00;;;;;11.74;57.81;100510.63;5502444;25;44911;-58
2024/04/09 04:31:15;;;;;;;;;1.00;0.00;;;;;11.72;58.06;100525.53;5537900;25;43791;-58
2024/04/09 04:33:42;;;;;;;;;1.00;0.00;;;;;11.71;57.92;100523.84;5533900;25;44087;-58
2024/04/09 04:36:08;;;;;;;;;1.50;0.00;;;;;11.68;58.28;100529.19;5536360;25;44945;-58
2024/04/09 04:38:34;;;;;;;;;1.25;0.00;;;;;11.68;58.18;100524.78;5502723;25;44809;-58
2024/04/09 04:40:59;;;;;;;;;1.00;0.50;;;;;11.70;58.12;100522.09;5534506;25;43911;-59
2024/04/09 04:43:25;;;;;;;;;1.00;0.00;;;;;11.70;58.39;100522.09;5538445;25;44021;-57
2024/04/09 04:45:56;;;;;;;;;1.50;0.00;;;;;11.70;58.56;100529.97;5540125;25;46574;-58
2024/04/09 04:48:22;;;;;;;;;2.50;0.00;;;;;11.71;58.15;100537.78;5541388;25;44006;-58
2024/04/09 04:50:48;;;;;;;;;2.50;0.00;;;;;11.70;58.34;100525.56;5539297;25;43824;-58
2024/04/09 04:53:13;;;;;;;;;0.00;0.00;;;;;11.70;58.65;100520.34;5538789;25;44013;-58
2024/04/09 04:55:39;;;;;;;;;2.00;0.00;;;;;11.73;58.14;100527.25;5539687;25;45291;-57
2024/04/09 04:58:05;;;;;;;;;1.25;0.25;;;;;11.71;58.44;100526.44;5529441;25;43895;-57
2024/04/09 05:00:31;;;;;;;;;2.00;0.75;;;;;11.69;58.38;100537.00;5500756;25;44306;-58
2024/04/09 05:02:57;;;;;;;;;3.75;0.00;;;;;11.70;58.68;100532.59;5539569;25;44026;-58
2024/04/09 05:05:22;;;;;;;;;3.25;0.00;;;;;11.63;58.05;100541.59;5540509;25;44079;-57
2024/04/09 05:07:51;;;;;;;;;0.50;0.00;;;;;11.59;58.63;100544.31;5505687;25;44024;-56
2024/04/09 05:10:19;;;;;;;;;1.00;0.00;;;;;11.52;58.50;100544.56;5475451;25;43778;-57
2024/04/09 05:12:48;;;;;;;;;2.50;0.00;;;;;11.48;58.94;100556.06;5539466;25;43772;-57
2024/04/09 05:15:14;;;;;;;;;0.75;0.75;;;;;11.43;58.63;100555.38;5538769;25;44999;-57
2024/04/09 05:17:40;;;;;;;;;1.00;0.00;;;;;11.40;59.57;100569.41;5506904;25;43939;-57
2024/04/09 05:20:10;;;;;;;;;0.75;0.75;;;;;11.37;59.91;100567.75;5540693;25;43637;-57
2024/04/09 05:22:39;;;;;;;;;1.50;0.25;;;;;11.38;58.82;100568.63;5536293;25;43911;-56
2024/04/09 05:25:09;;;;;;;;;1.75;1.00;;;;;11.37;58.83;100572.16;5540272;25;44890;-57
2024/04/09 05:27:36;;;;;;;;;3.00;0.00;;;;;11.34;59.05;100572.25;5506301;25;44313;-58
2024/04/09 05:30:01;;;;;;;;;1.00;0.00;;;;;11.29;58.79;100568.91;5531512;25;43944;-55
2024/04/09 05:32:28;;;;;;;;;1.75;1.00;;;;;11.26;59.66;100576.88;5535404;25;44118;-57
2024/04/09 05:34:53;;;;;;;;;0.25;0.25;;;;;11.21;59.73;100562.16;5519840;25;44761;-57
2024/04/09 05:37:20;;;;;;;;;3.50;1.00;;;;;11.21;59.60;100580.50;5501003;25;44251;-55
2024/04/09 05:39:46;;;;;;;;;3.75;0.00;;;;;11.20;59.51;100584.00;5536630;25;43997;-59
2024/04/09 05:42:12;;;;;;;;;0.75;0.00;;;;;11.18;59.27;100587.59;5504219;25;44433;-56
2024/04/09 05:44:38;;;;;;;;;2.00;0.25;;;;;11.19;59.29;100594.53;5536411;25;49052;-54
2024/04/09 05:47:04;;;;;;;;;1.50;0.00;;;;;11.21;59.57;100601.47;5540271;25;43934;-53
2024/04/09 05:49:29;;;;;;;;;0.00;0.00;;;;;11.29;59.10;100609.06;5538011;25;44043;-53
2024/04/09 05:51:55;;;;;;;;;2.00;0.00;;;;;11.34;60.01;100615.00;5535221;25;72333;-56
2024/04/09 05:54:20;;;;;;;;;1.00;1.00;;;;;11.40;59.04;100614.84;5539177;25;68550;-57
2024/04/09 05:56:46;;;;;;;;;3.00;0.00;;;;;11.44;58.93;100607.72;5538191;25;71767;-58
2024/04/09 05:59:11;;;;;;;;;1.75;0.00;;;;;11.49;59.25;100623.28;5540358;25;43881;-56
2024/04/09 06:01:36;;;;;;;;;5.00;1.00;;;;;11.54;58.95;100618.75;5538854;25;72739;-57
2024/04/09 06:04:02;;;;;;;;;0.00;0.00;;;;;11.56;58.95;100619.56;5537761;25;72970;-58
2024/04/09 06:06:27;;;;;;;;;2.50;1.00;;;;;11.58;58.62;100628.25;5540420;25;43898;-56
2024/04/09 06:08:53;;;;;;;;;2.00;0.75;;;;;11.58;58.64;100625.63;5539680;25;64450;-59
2024/04/09 06:11:18;;;;;;;;;1.00;0.00;;;;;11.54;59.00;100624.88;5538465;25;43877;-58
2024/04/09 06:13:43;;;;;;;;;2.75;0.00;;;;;11.59;58.12;100635.19;5539264;25;73776;-56
2024/04/09 06:16:09;;;;;;;;;2.00;0.50;;;;;11.56;58.08;100636.16;5539063;25;67602;-56
2024/04/09 06:18:35;;;;;;;;;1.75;1.00;;;;;11.50;58.06;100638.13;5539429;25;43859;-57
2024/04/09 06:21:00;;;;;;;;;0.00;0.00;;;;;11.43;57.76;100645.31;5534569;25;46050;-56
2024/04/09 06:23:25;;;;;;;;;1.00;0.25;;;;;11.38;57.84;100644.59;5536994;25;74151;-58
2024/04/09 06:25:55;;;;;;;;;0.00;0.00;;;;;11.40;57.81;100653.25;5539006;25;61976;-58
2024/04/09 06:28:20;;;;;;;;;2.00;1.00;;;;;11.45;57.67;100663.59;5540381;25;44073;-59
2024/04/09 06:30:46;;;;;;;;;0.75;0.75;;;;;11.49;57.29;100667.84;5537865;25;43849;-59
2024/04/09 06:33:11;;;;;;;;;0.25;0.25;;;;;11.47;57.59;100665.25;5504940;25;72554;-58
2024/04/09 06:35:38;;;;;;;;;1.50;0.00;;;;;11.44;57.34;100664.50;5538308;25;43986;-56
2024/04/09 06:38:04;;;;;;;;;2.75;1.00;;;;;11.40;57.73;100672.47;5507394;25;43748;-56
2024/04/09 06:40:31;;;;;;;;;1.75;0.00;;;;;11.39;57.27;100677.75;5506944;25;43694;-58
2024/04/09 06:42:57;;;;;;;;;5.00;0.00;;;;;11.43;57.73;100676.75;5540277;25;44949;-57
2024/04/09 06:45:22;;;;;;;;;0.25;0.00;;;;;11.46;57.28;100673.19;5503128;25;43924;-58
2024/04/09 06:47:47;;;;;;;;;2.25;0.50;;;;;11.46;57.14;100681.91;5506650;25;44357;-57
2024/04/09 06:50:13;;;;;;;;;1.00;0.00;;;;;11.49;57.27;100687.06;5539249;25;66667;-57
2024/04/09 06:52:38;;;;;;;;;1.00;0.00;;;;;11.55;57.26;100691.25;5536565;25;58157;-59
2024/04/09 06:55:05;;;;;;;;;1.00;0.00;;;;;11.63;56.63;100710.19;5537344;25;60597;-57
2024/04/09 06:57:30;;;;;;;;;0.00;0.00;;;;;11.65;56.60;100694.41;5536331;25;43898;-54
2024/04/09 06:59:56;;;;;;;;;5.25;1.00;;;;;11.64;56.22;100706.66;5538474;25;67917;-59
2024/04/09 07:02:21;;;;;;;;;0.50;0.50;;;;;11.67;56.68;100703.06;5537945;25;50399;-55
2024/04/09 07:04:47;;;;;;;;;2.00;0.00;;;;;11.71;56.39;100696.84;5534455;25;71898;-57
2024/04/09 07:07:12;;;;;;;;;1.00;0.00;;;;;11.77;56.65;100704.50;5540066;25;43888;-57
2024/04/09 07:09:38;;;;;;;;;1.00;0.00;;;;;11.82;56.14;100699.13;5500030;25;65078;-55
2024/04/09 07:12:04;;;;;;;;;1.75;0.00;;;;;11.79;56.08;100705.31;5535848;25;44933;-56
2024/04/09 07:14:29;;;;;;;;;0.00;0.00;;;;;11.76;55.98;100718.53;5509854;25;43630;-57
2024/04/09 07:16:55;;;;;;;;;1.00;0.00;;;;;11.81;56.29;100724.50;5505988;25;52422;-55
2024/04/09 07:19:20;;;;;;;;;1.00;0.00;;;;;11.91;55.96;100736.41;5538791;25;44159;-56
2024/04/09 07:21:45;;;;;;;;;2.75;1.00;;;;;11.94;55.57;100738.09;5505716;25;73941;-56
2024/04/09 07:24:10;;;;;;;;;3.50;0.00;;;;;11.88;55.32;100741.75;5538815;25;72243;-56
2024/04/09 07:26:36;;;;;;;;;0.00;0.00;;;;;11.86;55.73;100740.06;5539119;25;60818;-57
2024/04/09 07:29:02;;;;;;;;;0.50;0.00;;;;;11.87;55.15;100742.63;5539647;25;43718;-57
2024/04/09 07:31:27;;;;;;;;;0.75;0.00;;;;;11.86;55.17;100756.63;5539120;25;44823;-57
2024/04/09 07:33:54;;;;;;;;;0.00;0.00;;;;;11.85;55.49;100736.59;5530430;25;62183;-57
2024/04/09 07:36:20;;;;;;;;;0.00;0.00;;;;;11.92;55.21;100748.63;5506644;25;43919;-56
2024/04/09 07:38:47;;;;;;;;;1.00;0.00;;;;;11.97;55.60;100745.88;5539544;25;43755;-57
2024/04/09 07:41:12;;;;;;;;;0.25;0.00;;;;;12.03;55.41;100745.66;5539158;25;44941;-55
2024/04/09 07:43:38;;;;;;;;;2.50;0.00;;;;;12.03;55.28;100753.53;5539554;25;43840;-56
2024/04/09 07:46:04;;;;;;;;;0.00;0.00;;;;;12.02;55.06;100757.03;5474430;25;68070;-57
2024/04/09 07:48:30;;;;;;;;;1.75;0.00;;;;;12.01;54.82;100751.88;5506140;25;43728;-54
2024/04/09 07:50:56;;;;;;;;;2.00;1.00;;;;;11.97;54.40;100748.50;5505769;25;45594;-57
2024/04/09 07:53:21;;;;;;;;;2.25;1.00;;;;;11.92;54.69;100753.03;5539127;25;43935;-57
2024/04/09 07:55:46;;;;;;;;;1.50;0.00;;;;;11.91;54.89;100769.66;5505375;25;66995;-58
2024/04/09 07:58:12;;;;;;;;;0.00;0.00;;;;;11.93;54.32;100779.19;5539112;25;43714;-57
2024/04/09 08:00:38;;;;;;;;;1.50;0.50;;;;;11.89;54.54;100760.94;5535534;25;43909;-56
2024/04/09 08:03:04;;;;;;;;;0.25;0.00;;;;;11.88;54.46;100761.84;5533872;25;44262;-56
2024/04/09 08:05:29;;;;;;;;;3.00;0.00;;;;;11.89;54.33;100767.03;5539300;25;43835;-58
2024/04/09 08:07:55;;;;;;;;;2.75;0.00;;;;;11.88;54.59;100751.34;5530724;25;43939;-55
2024/04/09 08:10:21;;;;;;;;;3.50;0.25;;;;;12.00;54.49;100771.13;5528223;25;44904;-54
2024/04/09 08:12:49;;;;;;;;;2.50;0.00;;;;;12.05;54.74;100770.06;5538917;25;43877;-55
2024/04/09 08:15:18;;;;;;;;;2.25;0.75;;;;;12.19;54.63;100776.63;5505296;25;43839;-56
2024/04/09 08:17:47;;;;;;;;;2.00;0.00;;;;;12.41;54.33;100782.88;5509284;25;44085;-58
2024/04/09 08:20:13;;;;;;;;;0.25;0.00;;;;;12.63;54.14;100809.25;5540771;25;44021;-57
2024/04/09 08:22:38;;;;;;;;;2.00;0.00;;;;;12.68;53.13;100807.31;5542312;25;44380;-58
2024/04/09 08:25:04;;;;;;;;;2.00;0.00;;;;;12.81;53.15;100804.28;5541996;25;44038;-56
2024/04/09 08:27:33;;;;;;;;;0.25;0.00;;;;;12.95;53.02;100803.78;5542201;25;43828;-56
2024/04/09 08:29:59;;;;;;;;;0.00;0.00;;;;;13.08;52.52;100805.03;5509200;25;44966;-56
2024/04/09 08:32:25;;;;;;;;;0.00;0.00;;;;;13.22;52.11;100826.41;5541738;25;43832;-55
2024/04/09 08:34:51;;;;;;;;;2.00;0.00;;;;;13.33;51.79;100814.69;5540226;25;43984;-57
2024/04/09 08:37:17;;;;;;;;;3.00;0.00;;;;;13.42;51.59;100824.84;5541618;25;43915;-57
2024/04/09 08:39:42;;;;;;;;;0.00;0.00;;;;;13.54;51.88;100821.75;5508559;25;45428;-56
2024/04/09 08:42:08;;;;;;;;;1.50;0.00;;;;;13.59;51.53;100829.50;5540996;25;43874;-57
2024/04/09 08:44:33;;;;;;;;;1.00;0.00;;;;;13.70;51.00;100827.28;5540418;25;64714;-54
2024/04/09 08:47:00;;;;;;;;;0.00;0.00;;;;;13.78;50.81;100833.13;5507858;25;70533;-56
2024/04/09 08:49:25;;;;;;;;;2.00;1.00;;;;;13.82;50.66;100845.22;5540595;25;74515;-56
2024/04/09 08:51:51;;;;;;;;;2.25;0.00;;;;;13.83;50.67;100848.75;5540976;25;70277;-57
2024/04/09 08:54:17;;;;;;;;;3.00;0.00;;;;;13.81;50.67;100855.81;5478001;25;43797;-57
2024/04/09 08:56:42;;;;;;;;;0.00;0.00;;;;;13.79;49.79;100841.88;5540498;25;70811;-54
2024/04/09 08:59:07;;;;;;;;;1.50;0.00;;;;;13.82;50.01;100853.13;5539834;25;74258;-51
2024/04/09 09:01:33;;;;;;;;;0.25;0.00;;;;;13.84;50.79;100856.53;5540609;25;43719;-57
2024/04/09 09:03:59;;;;;;;;;1.00;1.00;;;;;13.89;49.72;100855.53;5540864;25;43822;-57
2024/04/09 09:06:24;;;;;;;;;2.25;1.00;;;;;13.96;49.61;100859.63;5508395;25;43782;-57
2024/04/09 09:08:50;;;;;;;;;2.00;1.00;;;;;14.00;49.47;100871.75;5507577;25;70477;-56
2024/04/09 09:11:22;;;;;;;;;2.25;0.00;;;;;13.95;49.41;100871.06;5533989;25;43869;-59
2024/04/09 09:13:47;;;;;;;;;1.25;1.00;;;;;13.91;49.83;100872.09;5535648;25;44051;-57
2024/04/09 09:16:13;;;;;;;;;3.00;1.00;;;;;13.95;49.60;100878.97;5529041;25;71079;-55
2024/04/09 09:18:38;;;;;;;;;2.25;1.00;;;;;14.05;50.17;100881.16;5534345;25;69073;-54
2024/04/09 09:21:04;;;;;;;;;3.00;1.50;;;;;14.17;49.57;100887.72;5541792;25;43837;-55
2024/04/09 09:23:30;;;;;;;;;0.75;0.75;;;;;14.27;49.93;100890.00;5540042;25;43831;-56
2024/04/09 09:25:57;;;;;;;;;1.75;0.00;;;;;14.34;49.31;100902.88;5478087;25;44075;-56
2024/04/09 09:28:22;;;;;;;;;0.50;0.50;;;;;14.40;48.45;100899.13;5506634;25;43981;-56
2024/04/09 09:30:48;;;;;;;;;4.00;0.75;;;;;14.40;48.76;100893.88;5508043;25;43837;-56
2024/04/09 09:33:19;;;;;;;;;1.00;1.00;;;;;14.42;48.30;100902.56;5539501;25;43853;-56
2024/04/09 09:35:50;;;;;;;;;2.00;1.00;;;;;14.50;48.15;100900.47;5508482;25;44033;-55
2024/04/09 09:38:17;;;;;;;;;3.00;0.00;;;;;14.57;47.69;100908.97;5541349;25;44963;-57
2024/04/09 09:40:46;;;;;;;;;2.00;1.00;;;;;14.61;47.35;100902.69;5508246;25;43962;-54
2024/04/09 09:43:13;;;;;;;;;2.00;1.00;;;;;14.66;47.97;100898.09;5508763;25;43897;-57
2024/04/09 09:45:39;;;;;;;;;0.75;0.75;;;;;14.71;47.95;100903.16;5541221;25;43854;-56
2024/04/09 09:48:05;;;;;;;;;1.00;1.00;;;;;14.75;47.99;100920.53;5540251;25;74806;-57
2024/04/09 09:50:32;;;;;;;;;1.00;1.00;;;;;14.75;47.37;100931.97;5508174;25;43748;-57
2024/04/09 09:52:57;;;;;;;;;0.00;0.00;;;;;14.72;47.25;100936.50;5508729;25;43957;-57
2024/04/09 09:55:23;;;;;;;;;4.00;1.00;;;;;14.64;46.96;100928.03;5508308;25;43900;-56
2024/04/09 09:57:51;;;;;;;;;2.00;0.50;;;;;14.53;47.00;100931.09;5507919;25;46720;-57
2024/04/09 10:00:16;;;;;;;;;2.00;0.00;;;;;14.37;47.90;100944.00;5539819;25;71914;-57
2024/04/09 10:02:45;;;;;;;;;1.00;0.75;;;;;14.31;47.88;100936.34;5539451;25;68114;-57
2024/04/09 10:05:17;;;;;;;;;2.50;1.25;;;;;14.33;46.97;100956.44;5540616;25;58603;-58
2024/04/09 10:07:45;;;;;;;;;3.00;1.00;;;;;14.31;47.14;100931.94;5507104;25;44000;-57
2024/04/09 10:10:11;;;;;;;;;4.50;2.75;;;;;14.34;47.76;100952.91;5541170;25;43914;-56
2024/04/09 10:12:37;;;;;;;;;2.00;1.00;;;;;14.41;47.32;100943.84;5508350;25;43838;-56
2024/04/09 10:15:11;;;;;;;;;2.50;1.50;;;;;14.54;46.86;100951.25;5540475;25;44019;-58
2024/04/09 10:17:50;;;;;;;;;1.50;0.25;;;;;14.60;46.64;100951.00;5496880;25;45944;-57
2024/04/09 10:20:21;;;;;;;;;1.00;0.25;;;;;14.68;46.59;100942.78;5533441;25;44311;-57
2024/04/09 10:22:47;;;;;;;;;1.00;0.00;;;;;14.67;46.16;100946.38;5540650;25;45119;-56
2024/04/09 10:25:24;;;;;;;;;2.00;0.50;;;;;14.73;46.66;100940.84;5504460;25;44110;-56
2024/04/09 10:28:00;;;;;;;;;1.75;0.00;;;;;14.79;45.18;100949.34;5540753;25;44878;-57
2024/04/09 10:30:27;;;;;;;;;1.75;0.25;;;;;14.73;45.31;100959.28;5540221;25;43804;-57
2024/04/09 10:33:03;;;;;;;;;3.00;1.00;;;;;14.72;46.60;100950.53;5540448;25;43808;-57
2024/04/09 10:35:29;;;;;;;;;9.50;6.00;;;;;14.76;46.07;100961.78;5514736;25;43786;-57
2024/04/09 10:37:56;;;;;;;;;4.00;2.00;;;;;14.74;46.02;100961.00;5540820;25;45680;-55
2024/04/09 10:40:22;;;;;;;;;1.00;1.00;;;;;14.70;46.17;100975.22;5538137;25;44307;-55
2024/04/09 10:42:48;;;;;;;;;4.25;3.00;;;;;14.64;45.92;100964.91;5540820;25;43963;-56
2024/04/09 10:45:14;;;;;;;;;3.00;3.00;;;;;14.51;45.35;100973.28;5540231;25;44013;-57
2024/04/09 10:47:39;;;;;;;;;4.00;1.00;;;;;14.48;46.90;100990.97;5540201;25;43822;-56
2024/04/09 10:50:05;;;;;;;;;6.25;1.00;;;;;14.54;46.66;100985.47;5506727;25;64044;-57
2024/04/09 10:52:32;;;;;;;;;4.00;3.50;;;;;14.63;45.89;100987.78;5540621;25;43807;-55
2024/04/09 10:55:06;;;;;;;;;7.25;2.75;;;;;14.80;46.23;100976.53;5540403;25;43910;-55
2024/04/09 10:57:31;;;;;;;;;4.00;2.75;;;;;15.03;45.91;100983.50;5539845;25;44934;-56
2024/04/09 11:00:11;;;;;;;;;3.00;1.00;;;;;15.14;45.09;100989.19;5506223;25;67245;-57
2024/04/09 11:02:43;;;;;;;;;1.25;1.25;;;;;15.20;45.66;100985.44;5506645;25;44053;-56
2024/04/09 11:05:10;;;;;;;;;1.25;1.25;;;;;15.28;46.22;100983.34;5540321;25;47465;-57
2024/04/09 11:07:37;;;;;;;;;4.00;2.00;;;;;15.44;46.18;100986.19;5538419;25;46760;-56
2024/04/09 11:10:08;;;;;;;;;4.25;2.00;;;;;15.54;44.97;100987.47;5540020;25;43824;-56
2024/04/09 11:12:37;;;;;;;;;3.25;2.00;;;;;15.57;45.04;101000.53;5540504;25;43990;-56
2024/04/09 11:15:03;;;;;;;;;2.25;1.50;;;;;15.51;44.76;101016.66;5506129;25;44213;-61
2024/04/09 11:17:29;;;;;;;;;3.75;2.75;;;;;15.39;47.38;101033.00;5506664;25;44953;-56
2024/04/09 11:20:09;;;;;;;;;4.00;1.00;;;;;15.27;48.38;101044.06;5513802;25;43901;-57